Flight Track Log - Related Links

Times and Time Zones

All times are in EST time to prevent confusion due to time zone crossing. See the N789EX flight status page for this flight to view local times or setup timezone preferences in your user account.

Time Position Orientation Groundspeed Altitude Reporting Facility
EST Latitude Longitude Course Direction KTS MPH feet Rate Location/Type
Sat 03:39:58 PM 47.5134 -122.2880 149° Southeast 168 193 2,200  Level FlightAware ADS-B
Sat 03:40:02 PM 47.5112 -122.2860 148° Southeast 170 196 2,400 2,250 Climbing FlightAware ADS-B
Sat 03:40:06 PM 47.5085 -122.2830 143° Southeast 169 194 2,500 667 Climbing FlightAware ADS-B
Sat 03:40:11 PM 47.5057 -122.2790 136° Southeast 166 191 2,500  Level FlightAware ADS-B
Sat 03:40:26 PM 47.4968 -122.2660 135° Southeast 187 215 2,500  Level FlightAware ADS-B
Sat 03:40:42 PM 47.4861 -122.2520 139° Southeast 212 244 2,500  Level FlightAware ADS-B
Sat 03:40:57 PM 47.4747 -122.2370 138° Southeast 217 250 2,500 222 Level FlightAware ADS-B
Sat 03:41:09 PM 47.4654 -122.2250 139° Southeast 225 259 2,600 1,111 Climbing FlightAware ADS-B
Sat 03:41:24 PM 47.4537 -122.2090 137° Southeast 224 258 3,000 1,615 Climbing FlightAware ADS-B
Sat 03:41:35 PM 47.4457 -122.1980 137° Southeast 226 260 3,300 1,615 Climbing FlightAware ADS-B
Sat 03:41:50 PM 47.4344 -122.1830 138° Southeast 226 260 3,700 1,826 Climbing FlightAware ADS-B
Sat 03:41:58 PM 47.4283 -122.1740 135° Southeast 225 259 4,000 2,000 Climbing FlightAware ADS-B
Sat 03:42:05 PM 47.4226 -122.1670 140° Southeast 225 259 4,200 1,800 Climbing FlightAware ADS-B
Sat 03:42:08 PM 47.4202 -122.1640 140° Southeast 224 258 4,300 1,714 Climbing FlightAware ADS-B
Sat 03:42:12 PM 47.4166 -122.1600 143° Southeast 220 253 4,400 1,500 Climbing FlightAware ADS-B
Sat 03:42:16 PM 47.4135 -122.1570 147° Southeast 216 249 4,500 2,250 Climbing FlightAware ADS-B
Sat 03:42:20 PM 47.4101 -122.1550 158° South 212 244 4,700 2,571 Climbing FlightAware ADS-B
Sat 03:42:23 PM 47.4072 -122.1530 155° Southeast 210 242 4,800 2,000 Climbing FlightAware ADS-B
Sat 03:42:38 PM 47.3938 -122.1470 163° South 206 237 5,300 1,500 Climbing FlightAware ADS-B
Sat 03:42:51 PM 47.3815 -122.1420 165° South 212 244 5,500 1,043 Climbing FlightAware ADS-B
Sat 03:43:01 PM 47.3720 -122.1380 164° South 214 246 5,700 1,440 Climbing FlightAware ADS-B
Sat 03:43:16 PM 47.3575 -122.1320 164° South 215 247 6,100 1,500 Climbing FlightAware ADS-B
Sat 03:43:25 PM 47.3493 -122.1280 162° South 214 246 6,300 1,500 Climbing FlightAware ADS-B
Sat 03:43:28 PM 47.3462 -122.1270 168° South 214 246 6,400 2,571 Climbing FlightAware ADS-B
Sat 03:43:32 PM 47.3423 -122.1260 170° South 210 242 6,600 3,000 Climbing FlightAware ADS-B
Sat 03:43:36 PM 47.3385 -122.1260 180° South 205 236 6,800 2,250 Climbing FlightAware ADS-B
Sat 03:43:40 PM 47.3349 -122.1270 191° South 205 236 6,900 2,571 Climbing FlightAware ADS-B
Sat 03:43:43 PM 47.3320 -122.1280 193° South 205 236 7,100 3,000 Climbing FlightAware ADS-B
Sat 03:43:50 PM 47.3255 -122.1310 197° South 209 241 7,400 2,857 Climbing FlightAware ADS-B
Sat 03:44:04 PM 47.3124 -122.1370 197° South 214 246 8,100 3,130 Climbing FlightAware ADS-B
Sat 03:44:13 PM 47.3041 -122.1420 202° Southwest 215 247 8,600 3,130 Climbing FlightAware ADS-B
Sat 03:44:27 PM 47.2905 -122.1490 199° South 219 252 9,300 2,667 Climbing FlightAware ADS-B
Sat 03:44:31 PM 47.2873 -122.1510 203° Southwest 218 251 9,400 2,571 Climbing FlightAware ADS-B
Sat 03:44:34 PM 47.2846 -122.1530 207° Southwest 217 250 9,600 3,000 Climbing FlightAware ADS-B
Sat 03:44:37 PM 47.2820 -122.1550 208° Southwest 215 247 9,700 3,000 Climbing FlightAware ADS-B
Sat 03:44:40 PM 47.2795 -122.1580 219° Southwest 214 246 9,900 3,429 Climbing FlightAware ADS-B
Sat 03:44:44 PM 47.2767 -122.1630 230° Southwest 213 245 10,100 3,000 Climbing FlightAware ADS-B
Sat 03:44:48 PM 47.2749 -122.1670 236° Southwest 214 246 10,300 2,571 Climbing FlightAware ADS-B
Sat 03:44:51 PM 47.2736 -122.1710 244° Southwest 215 247 10,400 3,000 Climbing FlightAware ADS-B
Sat 03:44:54 PM 47.2728 -122.1760 257° West 217 250 10,600 3,429 Climbing FlightAware ADS-B
Sat 03:44:58 PM 47.2725 -122.1820 266° West 222 255 10,800 3,429 Climbing FlightAware ADS-B
Sat 03:45:01 PM 47.2726 -122.1860 272° West 226 260 11,000 3,429 Climbing FlightAware ADS-B
Sat 03:45:05 PM 47.2733 -122.1920 280° West 231 266 11,200 3,000 Climbing FlightAware ADS-B
Sat 03:45:29 PM 47.2810 -122.2290 287° West 236 272 12,400 3,000 Climbing FlightAware ADS-B
Sat 03:45:47 PM 47.2874 -122.2570 289° West 235 270 13,300 2,857 Climbing FlightAware ADS-B
Sat 03:46:11 PM 47.2955 -122.2930 288° West 237 273 14,400 2,333 Climbing FlightAware ADS-B
Sat 03:46:41 PM 47.3051 -122.3410 286° West 248 285 15,400 1,138 Climbing FlightAware ADS-B
Sat 03:47:09 PM 47.3137 -122.3850 286° West 246 283 15,500 486 Climbing FlightAware ADS-B
Sat 03:47:18 PM 47.3166 -122.4005 285° West 247 284 15,700 2,000 Climbing FlightAware ADS-B
Sat 03:47:39 PM 47.3232 -122.4340 286° West 250 288 16,500 1,500 Climbing FlightAware ADS-B
Sat 03:48:06 PM 47.3323 -122.4836 285° West 288 331 16,900 968 Climbing FlightAware ADS-B
Sat 03:48:10 PM 47.3335 -122.4910 284° West 300 345 17,000 2,118 Climbing FlightAware ADS-B
Sat 03:48:40 PM 47.3445 -122.5540 284° West 329 379 18,100 2,553 Climbing FlightAware ADS-B
Sat 03:48:57 PM 47.3507 -122.5910 284° West 334 384 19,000 3,143 Climbing FlightAware ADS-B
Sat 03:49:01 PM 47.3518 -122.6000 280° West 333 383 19,200 3,000 Climbing FlightAware ADS-B
Sat 03:49:05 PM 47.3522 -122.6100 273° West 329 379 19,400 3,273 Climbing FlightAware ADS-B
Sat 03:49:12 PM 47.3515 -122.6240 266° West 326 375 19,800 2,824 Climbing FlightAware ADS-B
Sat 03:49:22 PM 47.3482 -122.6460 258° West 330 380 20,200 2,500 Climbing FlightAware ADS-B
Sat 03:49:48 PM 47.3350 -122.7020 251° West 341 392 21,300 1,929 Climbing FlightAware ADS-B
Sat 03:50:18 PM 47.3174 -122.7680 249° West 339 390 22,000 600 Climbing FlightAware ADS-B
Sat 03:50:48 PM 47.2999 -122.8340 249° West 349 402 21,900 -783 Descending FlightAware ADS-B
Sat 03:51:04 PM 47.2907 -122.8686 249° West 362 417 21,400 -1,355 Descending FlightAware ADS-B
Sat 03:51:19 PM 47.2819 -122.9030 249° West 360 414 21,200 -563 Descending FlightAware ADS-B
Sat 03:51:36 PM 47.2716 -122.9422 249° West 350 403 21,100 -400 Descending FlightAware ADS-B
Sat 03:51:49 PM 47.2643 -122.9700 249° West 349 402 21,000 -293 Descending FlightAware ADS-B
Sat 03:52:17 PM 47.2480 -123.0327 249° West 340 391 20,900 -200 Descending FlightAware ADS-B
Sat 03:52:19 PM 47.2468 -123.0370 247° West 343 395 20,900 -182 Level FlightAware ADS-B
Sat 03:52:50 PM 47.2293 -123.1040 249° West 358 412 20,800 -188 Descending FlightAware ADS-B
Sat 03:52:51 PM 47.2283 -123.1074 247° West 361 415 20,800  Level FlightAware ADS-B
Sat 03:53:20 PM 47.2101 -123.1760 249° West 388 447 20,800  Level FlightAware ADS-B
Sat 03:53:34 PM 47.2007 -123.2113 248° West 387 445 20,800  Level FlightAware ADS-B
Sat 03:53:50 PM 47.1906 -123.2500 249° West 387 445 20,800  Level FlightAware ADS-B
Sat 03:54:05 PM 47.1810 -123.2858 248° West 386 444 20,800  Level FlightAware ADS-B
Sat 03:54:20 PM 47.1710 -123.3240 249° West 388 447 20,800  Level FlightAware ADS-B
Sat 03:54:45 PM 47.1572 -123.3754 248° West 394 453 20,800  Level FlightAware ADS-B
Sat 03:54:51 PM 47.1505 -123.4000 248° West 395 455 20,800  Level FlightAware ADS-B
Sat 03:55:09 PM 47.1386 -123.4450 249° West 395 455 20,800  Level FlightAware ADS-B
Sat 03:55:16 PM 47.1335 -123.4610 245° Southwest 393 452 20,800  Level FlightAware ADS-B
Sat 03:55:22 PM 47.1283 -123.4750 241° Southwest 390 449 20,800  Level FlightAware ADS-B
Sat 03:55:27 PM 47.1224 -123.4860 232° Southwest 389 448 20,800  Level FlightAware ADS-B
Sat 03:55:29 PM 47.1200 -123.4899 228° Southwest 389 448 20,800  Level FlightAware ADS-B
Sat 03:55:32 PM 47.1161 -123.4950 222° Southwest 390 449 20,800  Level FlightAware ADS-B
Sat 03:55:36 PM 47.1107 -123.5020 221° Southwest 390 449 20,800  Level FlightAware ADS-B
Sat 03:55:43 PM 47.0989 -123.5120 210° Southwest 390 449 20,800  Level FlightAware ADS-B
Sat 03:55:48 PM 47.0911 -123.5160 199° South 394 453 20,800  Level FlightAware ADS-B
Sat 03:55:52 PM 47.0836 -123.5190 195° South 398 458 20,800 667 Level FlightAware ADS-B
Sat 03:55:57 PM 47.0751 -123.5200 185° South 403 464 20,900 750 Climbing FlightAware ADS-B
Sat 03:56:00 PM 47.0691 -123.5200 180° South 407 468 20,900  Level FlightAware ADS-B
Sat 03:56:04 PM 47.0615 -123.5200 180° South 412 474 20,900  Level FlightAware ADS-B
Sat 03:56:09 PM 47.0524 -123.5170 167° South 418 481 20,900  Level FlightAware ADS-B
Sat 03:56:13 PM 47.0449 -123.5140 165° South 422 486 20,900  Level FlightAware ADS-B
Sat 03:56:21 PM 47.0305 -123.5070 162° South 429 494 20,900  Level FlightAware ADS-B
Sat 03:56:30 PM 47.0138 -123.4950 154° Southeast 434 499 20,900  Level FlightAware ADS-B
Sat 03:57:00 PM 46.9605 -123.4500 150° Southeast 437 503 20,900  Level FlightAware ADS-B
Sat 03:57:32 PM 46.9061 -123.4030 149° Southeast 441 507 20,900  Level FlightAware ADS-B
Sat 03:57:36 PM 46.9047 -123.4013 141° Southeast 443 510 20,900  Level FlightAware ADS-B
Sat 03:58:02 PM 46.8533 -123.3570 149° Southeast 442 509 20,900  Level FlightAware ADS-B
Sat 03:58:32 PM 46.8001 -123.3110 149° Southeast 444 511 20,900  Level FlightAware ADS-B
Sat 03:59:02 PM 46.7468 -123.2650 149° Southeast 446 513 20,900  Level FlightAware ADS-B
Sat 03:59:32 PM 46.6930 -123.2190 150° Southeast 442 509 20,900  Level FlightAware ADS-B
Sat 04:00:02 PM 46.6403 -123.1740 150° Southeast 441 507 20,900  Level FlightAware ADS-B
Sat 04:00:32 PM 46.5873 -123.1290 150° Southeast 438 504 20,900  Level FlightAware ADS-B
Sat 04:01:03 PM 46.5349 -123.0850 150° Southeast 440 506 20,900  Level FlightAware ADS-B
Sat 04:01:33 PM 46.4808 -123.0390 150° Southeast 448 516 20,900 700 Level FlightAware ADS-B
Sat 04:02:03 PM 46.4258 -122.9930 150° Southeast 456 525 21,600 2,361 Climbing FlightAware ADS-B
Sat 04:02:34 PM 46.3695 -122.9460 150° Southeast 448 516 23,300 3,000 Climbing FlightAware ADS-B
Sat 04:03:05 PM 46.3152 -122.9010 150° Southeast 455 524 24,700 2,557 Climbing FlightAware ADS-B
Sat 04:03:35 PM 46.2603 -122.8540 149° Southeast 456 525 25,900 1,400 Climbing FlightAware ADS-B
Sat 04:04:05 PM 46.2061 -122.8060 148° Southeast 450 518 26,100 295 Climbing FlightAware ADS-B
Sat 04:04:36 PM 46.1518 -122.7580 149° Southeast 446 513 26,200 98 Climbing FlightAware ADS-B
Sat 04:05:06 PM 46.0983 -122.7120 149° Southeast 449 517 26,200  Level FlightAware ADS-B
Sat 04:05:36 PM 46.0448 -122.6670 150° Southeast 452 520 26,200  Level FlightAware ADS-B
Sat 04:05:50 PM 46.0177 -122.6510 158° South 443 510 26,200  Level FlightAware ADS-B
Sat 04:06:20 PM 45.9581 -122.6330 168° South 437 503 26,200  Level FlightAware ADS-B
Sat 04:06:51 PM 45.8978 -122.6160 169° South 438 504 26,200  Level FlightAware ADS-B
Sat 04:07:22 PM 45.8353 -122.5990 169° South 433 498 26,200  Level FlightAware ADS-B
Sat 04:07:56 PM 45.7688 -122.5800 169° South 435 501 26,200  Level FlightAware ADS-B
Sat 04:08:41 PM 45.6805 -122.5550 169° South 435 501 26,200  Level FlightAware ADS-B
Sat 04:10:02 PM 45.5113 -122.5090 169° South 435 501 26,200  Level FlightAware ADS-B
Sat 04:10:35 PM 45.4438 -122.5050 178° South 444 511 26,200  Level FlightAware ADS-B
Sat 04:14:43 PM 44.9890 -122.7310 199° South 433 498 26,200  Level FlightAware ADS-B
Sat 04:15:31 PM 44.9405 -122.8500 240° Southwest 430 495 26,200 54 Level FlightAware ADS-B
Sat 04:20:17 PM 44.6521 -123.5560 240° Southwest 439 505 26,500 57 Climbing FlightAware ADS-B
Sat 04:20:48 PM 44.6206 -123.6340 240° Southwest 440 506 26,500  Level FlightAware ADS-B
Sat 04:21:19 PM 44.5901 -123.7080 240° Southwest 440 506 26,500  Level FlightAware ADS-B
Sat 04:21:51 PM 44.5573 -123.7880 240° Southwest 441 507 26,500  Level FlightAware ADS-B
Sat 04:22:13 PM 44.5372 -123.8450 244° Southwest 436 502 26,500  Level FlightAware ADS-B
Sat 04:22:22 PM 44.5330 -123.8690 256° West 434 499 26,500  Level FlightAware ADS-B
Sat 04:22:31 PM 44.5316 -123.8940 266° West 432 497 26,500  Level FlightAware ADS-B
Sat 04:23:07 PM 44.5330 -123.9950 271° West 430 495 26,500 90 Level FlightAware ADS-B
Sat 04:23:38 PM 44.5345 -124.0790 271° West 431 496 26,600 984 Climbing FlightAware ADS-B
Sat 04:24:08 PM 44.5359 -124.1630 271° West 434 499 27,500 2,451 Climbing FlightAware ADS-B
Sat 04:24:49 PM 44.5378 -124.2790 271° West 432 497 29,500 2,333 Climbing FlightAware ADS-B
Sat 04:25:56 PM 44.5397 -124.4344 271° West 416 479 31,700 1,654 Climbing Seattle Center
Sat 04:26:56 PM 44.5425 -124.5992 271° West 422 486 33,000 397 Climbing Seattle Center
Sat 04:27:57 PM 44.5456 -124.7644 272° West 424 488 32,500 -295 Descending Seattle Center
Sat 04:28:58 PM 44.5486 -124.9292 272° West 425 489 32,400 -99 Descending Seattle Center
Sat 04:29:58 PM 44.5511 -125.0958 271° West 428 493 32,300 -50 Descending Seattle Center
Sat 04:30:59 PM 44.5531 -125.2542 271° West 412 474 32,300 49 Level Seattle Center
Sat 04:32:00 PM 44.5569 -125.4064 272° West 396 456 32,400  Climbing Seattle Center
Sat 04:33:00 PM 44.5589 -125.5564 271° West 388 447 32,300  Descending Seattle Center
Sat 04:34:01 PM 44.5611 -125.6992 271° West 371 427 32,400  Climbing Seattle Center
Sat 04:35:02 PM 44.5636 -125.8372 272° West 359 413 32,300  Descending Seattle Center
Sat 04:36:02 PM 44.5658 -125.9694 271° West 344 396 32,400  Climbing Seattle Center
Sat 04:37:03 PM 44.5672 -126.1011 271° West 340 391 32,300 -50 Descending Seattle Center
Sat 04:38:03 PM 44.5778 -126.2603 275° West 343 395 32,300 149 Level Seattle Center
Sat 04:39:04 PM 44.6797 -126.2958 346° North 421 484 32,600 98 Climbing Seattle Center
Sat 04:40:05 PM 44.7992 -126.1889 32° Northeast 509 586 32,500 16 Descending Seattle Center
Sat 04:45:27 PM 45.4560 -125.5710 32° Northeast 417 480 32,700 34 Climbing FlightAware ADS-B
Sat 04:45:57 PM 45.5027 -125.5260 34° Northeast 398 458 32,700  Level FlightAware ADS-B
Sat 04:46:27 PM 45.5488 -125.4820 34° Northeast 399 459 32,700  Level FlightAware ADS-B
Sat 04:46:58 PM 45.5969 -125.4360 34° Northeast 402 463 32,700  Level FlightAware ADS-B
Sat 04:47:29 PM 45.6431 -125.3920 34° Northeast 401 461 32,700  Level FlightAware ADS-B
Sat 04:48:00 PM 45.6914 -125.3460 34° Northeast 401 461 32,700  Level FlightAware ADS-B
Sat 04:48:30 PM 45.7379 -125.3020 33° Northeast 401 461 32,700  Level FlightAware ADS-B
Sat 04:49:00 PM 45.7832 -125.2580 34° Northeast 376 433 32,700  Level FlightAware ADS-B
Sat 04:49:30 PM 45.8253 -125.2180 34° Northeast 355 409 32,700  Level FlightAware ADS-B
Sat 04:50:00 PM 45.8663 -125.1790 34° Northeast 358 412 32,700  Level FlightAware ADS-B
Sat 04:50:31 PM 45.9079 -125.1390 34° Northeast 357 411 32,700  Level FlightAware ADS-B
Sat 04:51:01 PM 45.9491 -125.0990 34° Northeast 354 407 32,700  Level FlightAware ADS-B
Sat 04:51:31 PM 45.9899 -125.0600 34° Northeast 350 403 32,700  Level FlightAware ADS-B
Sat 04:52:02 PM 46.0316 -125.0200 34° Northeast 352 405 32,700  Level FlightAware ADS-B
Sat 04:52:32 PM 46.0725 -124.9800 34° Northeast 354 407 32,700  Level FlightAware ADS-B
Sat 04:53:03 PM 46.1139 -124.9400 34° Northeast 355 409 32,700  Level FlightAware ADS-B
Sat 04:53:33 PM 46.1548 -124.9010 33° Northeast 355 409 32,700  Level FlightAware ADS-B
Sat 04:54:02 PM 46.1939 -124.8630 34° Northeast 341 392 32,700  Level FlightAware ADS-B
Sat 04:54:32 PM 46.2325 -124.8260 34° Northeast 330 380 32,700  Level FlightAware ADS-B
Sat 04:55:03 PM 46.2706 -124.7890 34° Northeast 325 374 32,700  Level FlightAware ADS-B
Sat 04:55:33 PM 46.3081 -124.7520 34° Northeast 323 372 32,700  Level FlightAware ADS-B
Sat 04:56:04 PM 46.3462 -124.7150 34° Northeast 326 375 32,700  Level FlightAware ADS-B
Sat 04:56:34 PM 46.3847 -124.6780 34° Northeast 333 383 32,700  Level FlightAware ADS-B
Sat 04:57:04 PM 46.4237 -124.6400 34° Northeast 336 387 32,700  Level FlightAware ADS-B
Sat 04:57:35 PM 46.4633 -124.6020 33° Northeast 348 400 32,700  Level FlightAware ADS-B
Sat 04:58:05 PM 46.5056 -124.5600 34° Northeast 376 433 32,700 130 Level FlightAware ADS-B
Sat 04:58:21 PM 46.5289 -124.5380 33° Northeast 389 448 32,800 545 Climbing FlightAware ADS-B
Sat 04:58:27 PM 46.5375 -124.5280 39° Northeast 395 455 32,900 1,000 Climbing FlightAware ADS-B
Sat 04:58:33 PM 46.5453 -124.5180 41° Northeast 402 463 33,000 1,714 Climbing FlightAware ADS-B
Sat 04:58:41 PM 46.5549 -124.4990 54° Northeast 410 472 33,300 1,500 Climbing FlightAware ADS-B
Sat 04:58:49 PM 46.5615 -124.4800 63° Northeast 417 480 33,400 750 Climbing FlightAware ADS-B
Sat 04:58:57 PM 46.5656 -124.4580 75° East 425 489 33,500 500 Climbing FlightAware ADS-B
Sat 04:59:01 PM 46.5668 -124.4470 81° East 428 493 33,500  Level FlightAware ADS-B
Sat 04:59:08 PM 46.5664 -124.4270 92° East 435 501 33,500 462 Level FlightAware ADS-B
Sat 04:59:14 PM 46.5650 -124.4080 96° East 439 505 33,600 429 Climbing FlightAware ADS-B
Sat 04:59:22 PM 46.5585 -124.3860 113° Southeast 440 506 33,600  Level FlightAware ADS-B
Sat 04:59:30 PM 46.5508 -124.3680 122° Southeast 438 504 33,600 375 Level FlightAware ADS-B
Sat 04:59:38 PM 46.5396 -124.3490 131° Southeast 436 502 33,700 600 Climbing FlightAware ADS-B
Sat 04:59:50 PM 46.5216 -124.3270 140° Southeast 439 505 33,800 267 Climbing FlightAware ADS-B
Sat 05:00:23 PM 46.4661 -124.2710 145° Southeast 452 520 33,900 286 Climbing FlightAware ADS-B
Sat 05:00:53 PM 46.4115 -124.2180 146° Southeast 476 548 34,100 490 Climbing FlightAware ADS-B
Sat 05:01:12 PM 46.3763 -124.1840 146° Southeast 487 560 34,300 692 Climbing FlightAware ADS-B
Sat 05:01:19 PM 46.3623 -124.1720 149° Southeast 485 558 34,400 632 Climbing FlightAware ADS-B
Sat 05:01:31 PM 46.3379 -124.1590 160° South 476 548 34,500 462 Climbing FlightAware ADS-B
Sat 05:01:45 PM 46.3085 -124.1520 171° South 473 544 34,600 894 Climbing FlightAware ADS-B
Sat 05:02:18 PM 46.2347 -124.1450 176° South 479 551 35,200 1,594 Climbing FlightAware ADS-B
Sat 05:02:49 PM 46.1670 -124.1400 177° South 474 545 36,300 1,574 Climbing FlightAware ADS-B
Sat 05:03:19 PM 46.1005 -124.1350 177° South 480 552 36,800 800 Climbing FlightAware ADS-B
Sat 05:03:49 PM 46.0335 -124.1290 176° South 490 564 37,100 393 Climbing FlightAware ADS-B
Sat 05:04:20 PM 45.9623 -124.1240 177° South 506 582 37,200 98 Climbing FlightAware ADS-B
Sat 05:04:50 PM 45.8917 -124.1180 177° South 512 589 37,200  Level FlightAware ADS-B
Sat 05:05:20 PM 45.8194 -124.1120 177° South 523 602 37,200 98 Level FlightAware ADS-B
Sat 05:05:51 PM 45.7464 -124.1060 177° South 526 605 37,300 286 Climbing FlightAware ADS-B
Sat 05:06:23 PM 45.6687 -124.1000 177° South 525 604 37,500 375 Climbing FlightAware ADS-B
Sat 05:06:55 PM 45.5892 -124.0930 176° South 524 603 37,700 190 Climbing FlightAware ADS-B
Sat 05:07:26 PM 45.5154 -124.0870 177° South 531 611 37,700 -290 Level FlightAware ADS-B
Sat 05:07:57 PM 45.4394 -124.0810 177° South 533 613 37,400 -590 Descending FlightAware ADS-B
Sat 05:08:27 PM 45.3642 -124.0740 176° South 531 611 37,100 -197 Descending FlightAware ADS-B
Sat 05:08:58 PM 45.2891 -124.0670 176° South 528 608 37,200 169 Climbing FlightAware ADS-B
Sat 05:09:38 PM 45.1926 -124.0590 177° South 529 609 37,300 514 Climbing FlightAware ADS-B
Sat 05:10:08 PM 45.1195 -124.0530 177° South 524 603 37,800 636 Climbing FlightAware ADS-B
Sat 05:10:44 PM 45.0323 -124.0450 176° South 524 603 38,000 179 Climbing FlightAware ADS-B
Sat 05:11:15 PM 44.9559 -124.0390 177° South 532 612 38,000 197 Level FlightAware ADS-B
Sat 05:11:45 PM 44.8815 -124.0320 176° South 530 610 38,200 400 Climbing FlightAware ADS-B
Sat 05:12:15 PM 44.8081 -124.0260 177° South 531 611 38,400 321 Climbing FlightAware ADS-B
Sat 05:12:41 PM 44.7444 -124.0220 177° South 527 606 38,500 -196 Climbing FlightAware ADS-B
Sat 05:15:49 PM 44.5277 -124.4140 232° Southwest 448 516 37,700 -637 Descending FlightAware ADS-B
Sat 05:16:27 PM 44.5268 -124.5270 269° West 461 531 36,100 -257 Descending FlightAware ADS-B
Sat 05:16:59 PM 44.5260 -124.6180 269° West 433 498 37,400 1,891 Climbing FlightAware ADS-B
Sat 05:17:59 PM 44.5242 -124.7830 269° West 426 490 39,000 1,055 Climbing FlightAware ADS-B
Sat 05:18:30 PM 44.5222 -124.8519 269° West 427 491 39,000 522 Level Seattle Center
Sat 05:19:31 PM 44.5236 -125.0217 271° West 434 499 39,800 893 Climbing Seattle Center
Sat 05:20:31 PM 44.5275 -125.1897 272° West 433 498 40,800 -1,289 Climbing Seattle Center
Sat 05:21:32 PM 44.5306 -125.3608 271° West 437 503 37,200 -1,426 Descending Seattle Center
Sat 05:22:33 PM 44.5300 -125.5286 270° West 417 480 37,900 1,438 Climbing Seattle Center
Sat 05:23:33 PM 44.5606 -125.6639 288° West 365 420 40,100 1,339 Climbing Seattle Center
Sat 05:24:34 PM 44.6175 -125.7786 305° West 358 412 40,600 246 Climbing Seattle Center
Sat 05:25:35 PM 44.6986 -125.8758 320° Northwest 386 444 40,600 -401 Level Seattle Center
Sat 05:31:03 PM 45.3920 -125.4550 320° Northwest 518 596 38,000 -435 Descending FlightAware ADS-B
Sat 05:31:34 PM 45.4536 -125.3970 33° Northeast 521 600 38,000  Level FlightAware ADS-B
Sat 05:32:04 PM 45.5142 -125.3390 34° Northeast 523 602 38,000  Level FlightAware ADS-B
Sat 05:32:34 PM 45.5750 -125.2820 33° Northeast 525 604 38,000 -300 Level FlightAware ADS-B
Sat 05:33:04 PM 45.6362 -125.2230 34° Northeast 522 601 37,700 -1,400 Descending FlightAware ADS-B
Sat 05:33:34 PM 45.6960 -125.1670 33° Northeast 516 594 36,600 -3,111 Descending FlightAware ADS-B
Sat 05:33:58 PM 45.7432 -125.1220 34° Northeast 524 603 34,900 -4,473 Descending FlightAware ADS-B
Sat 05:34:29 PM 45.8082 -125.0700 29° Northeast 526 605 32,500 -2,852 Descending FlightAware ADS-B
Sat 05:34:59 PM 45.8720 -125.0230 27° Northeast 517 595 32,000 -800 Descending FlightAware ADS-B
Sat 05:35:29 PM 45.9370 -124.9750 27° Northeast 528 608 31,700 -800 Descending FlightAware ADS-B
Sat 05:35:59 PM 46.0020 -124.9270 27° Northeast 532 612 31,200 -800 Descending FlightAware ADS-B
Sat 05:36:29 PM 46.0665 -124.8750 29° Northeast 531 611 30,900 -700 Descending FlightAware ADS-B
Sat 05:36:59 PM 46.1309 -124.8230 29° Northeast 526 605 30,500 -900 Descending FlightAware ADS-B
Sat 05:37:29 PM 46.1947 -124.7720 29° Northeast 527 606 30,000 -800 Descending FlightAware ADS-B
Sat 05:37:59 PM 46.2597 -124.7200 29° Northeast 531 611 29,700 -590 Descending FlightAware ADS-B
Sat 05:38:30 PM 46.3253 -124.6670 29° Northeast 536 617 29,400 -492 Descending FlightAware ADS-B
Sat 05:39:00 PM 46.3905 -124.6150 29° Northeast 534 615 29,200 -197 Descending FlightAware ADS-B
Sat 05:39:31 PM 46.4562 -124.5620 29° Northeast 532 612 29,200 -295 Level FlightAware ADS-B
Sat 05:40:01 PM 46.5214 -124.5090 29° Northeast 538 619 28,900 -667 Descending FlightAware ADS-B
Sat 05:40:16 PM 46.5545 -124.4820 29° Northeast 544 626 28,700 -375 Descending FlightAware ADS-B
Sat 05:40:33 PM 46.5886 -124.4460 36° Northeast 557 641 28,700 -231 Level FlightAware ADS-B
Sat 05:40:42 PM 46.6064 -124.4210 44° Northeast 565 650 28,600 -571 Descending FlightAware ADS-B
Sat 05:40:54 PM 46.6255 -124.3860 52° Northeast 572 658 28,500 -600 Descending FlightAware ADS-B
Sat 05:41:02 PM 46.6366 -124.3590 59° Northeast 575 662 28,400 -429 Descending FlightAware ADS-B
Sat 05:41:08 PM 46.6441 -124.3370 64° Northeast 578 665 28,400 -600 Level FlightAware ADS-B
Sat 05:41:22 PM 46.6553 -124.2870 72° East 582 670 28,200 -857 Descending FlightAware ADS-B
Sat 05:41:29 PM 46.6582 -124.2600 81° East 583 671 28,100 -706 Descending FlightAware ADS-B
Sat 05:41:39 PM 46.6591 -124.2190 88° East 584 672 28,000 -375 Descending FlightAware ADS-B
Sat 05:41:45 PM 46.6575 -124.1950 96° East 584 672 28,000  Level FlightAware ADS-B
Sat 05:41:53 PM 46.6534 -124.1650 101° East 585 673 28,000  Level FlightAware ADS-B
Sat 05:42:03 PM 46.6443 -124.1280 110° East 584 672 28,000  Level FlightAware ADS-B
Sat 05:42:16 PM 46.6281 -124.0850 119° Southeast 576 663 28,000  Level FlightAware ADS-B
Sat 05:42:23 PM 46.6169 -124.0630 127° Southeast 572 658 28,000  Level FlightAware ADS-B
Sat 05:42:31 PM 46.6027 -124.0420 135° Southeast 569 655 28,000  Level FlightAware ADS-B
Sat 05:42:41 PM 46.5814 -124.0170 141° Southeast 563 648 28,000  Level FlightAware ADS-B
Sat 05:42:51 PM 46.5595 -123.9990 151° Southeast 555 639 28,000  Level FlightAware ADS-B
Sat 05:42:59 PM 46.5396 -123.9880 159° South 546 628 28,000  Level FlightAware ADS-B
Sat 05:43:05 PM 46.5256 -123.9830 166° South 540 621 28,000  Level FlightAware ADS-B
Sat 05:43:16 PM 46.4988 -123.9770 171° South 529 609 28,000  Level FlightAware ADS-B
Sat 05:43:47 PM 46.4247 -123.9750 179° South 523 602 28,000  Level FlightAware ADS-B
Sat 05:44:17 PM 46.3505 -123.9730 179° South 526 605 28,000  Level FlightAware ADS-B
Sat 05:44:48 PM 46.2761 -123.9710 179° South 526 605 28,000  Level FlightAware ADS-B
Sat 05:45:18 PM 46.2032 -123.9690 179° South 524 603 28,000  Level FlightAware ADS-B
Sat 05:45:49 PM 46.1274 -123.9660 178° South 520 598 28,000  Level FlightAware ADS-B
Sat 05:46:20 PM 46.0543 -123.9640 179° South 520 598 28,000  Level FlightAware ADS-B
Sat 05:46:50 PM 45.9817 -123.9620 179° South 520 598 28,000  Level FlightAware ADS-B
Sat 05:47:20 PM 45.9100 -123.9600 179° South 497 572 28,000 -941 Level FlightAware ADS-B
Sat 05:47:41 PM 45.8633 -123.9590 179° South 479 551 27,200 -2,538 Descending FlightAware ADS-B
Sat 05:48:12 PM 45.7970 -123.9680 185° South 457 526 25,800 -3,290 Descending FlightAware ADS-B
Sat 05:48:43 PM 45.7344 -123.9790 187° South 429 494 23,800 -5,250 Descending FlightAware ADS-B
Sat 05:49:16 PM 45.6704 -123.9830 183° South 422 486 20,200 -6,571 Descending FlightAware ADS-B
Sat 05:49:46 PM 45.6138 -123.9850 181° South 403 464 16,900 -6,128 Descending FlightAware ADS-B
Sat 05:50:50 PM 45.5161 -123.9894 181° South 403 464 10,600 -3,387 Descending Seattle Center
Sat 05:51:50 PM 45.4094 -123.9936 182° South 390 449 9,900 -397 Descending Seattle Center
Sat 05:52:51 PM 45.3011 -123.9972 181° South 390 449 9,800 -50 Descending Seattle Center
Sat 05:53:51 PM 45.2053 -124.0503 201° Southwest 384 442 9,800  Level Seattle Center
Sat 05:54:52 PM 45.1172 -124.1242 211° Southwest 373 429 9,800 50 Level Seattle Center
Sat 05:55:52 PM 45.0086 -124.2142 210° Southwest 377 434 9,900 99 Climbing Seattle Center
Sat 05:56:53 PM 44.9106 -124.2950 210° Southwest 400 460 10,000  Climbing Seattle Center
Sat 05:57:53 PM 44.8047 -124.3639 205° Southwest 412 474 9,900 -50 Descending Seattle Center
Sat 05:58:54 PM 44.6989 -124.4300 204° Southwest 416 479 9,900 50 Level Seattle Center
Sat 05:59:54 PM 44.5922 -124.4989 205° Southwest 420 483 10,000  Climbing Seattle Center
Sat 06:00:55 PM 44.5008 -124.6017 219° Southwest 423 487 9,900 -98 Descending Seattle Center
Sat 06:01:56 PM 44.4111 -124.7025 219° Southwest 417 480 9,800  Descending Seattle Center
Sat 06:02:56 PM 44.3181 -124.8019 217° Southwest 418 481 9,900 50 Climbing Seattle Center
Sat 06:03:57 PM 44.2242 -124.9011 217° Southwest 421 484 9,900  Level Seattle Center
Sat 06:04:57 PM 44.2397 -125.0342 279° West 400 460 9,900  Level Seattle Center
Sat 06:05:58 PM 44.3558 -125.0447 356° North 424 488 9,900 50 Level Seattle Center
Sat 06:06:58 PM 44.4781 -125.0075 12° North 440 506 10,000 50 Climbing Seattle Center
Sat 06:07:59 PM 44.6039 -124.9700 12° North 452 520 10,000  Level Seattle Center
Sat 06:08:59 PM 44.7297 -124.9333 12° North 456 525 10,000 298 Level Seattle Center
Sat 06:10:00 PM 44.8567 -124.9017 10° North 459 528 10,600 149 Climbing Seattle Center
Sat 06:11:00 PM 44.9575 -124.8656 14° North 417 480 10,300 -198 Descending Seattle Center
Sat 06:12:01 PM 45.0528 -124.8511 North 366 421 10,200 -49 Descending Seattle Center
Sat 06:13:02 PM 45.1494 -124.8206 13° North 356 410 10,200  Level Seattle Center
Sat 06:14:02 PM 45.2447 -124.7842 15° North 354 407 10,200 -149 Level Seattle Center
Sat 06:15:03 PM 45.3414 -124.7506 14° North 355 409 9,900 -149 Descending Seattle Center
Sat 06:16:03 PM 45.4389 -124.7144 15° North 358 412 9,900  Level Seattle Center
Sat 06:17:04 PM 45.5358 -124.6794 14° North 359 413 9,900  Level Seattle Center
Sat 06:18:04 PM 45.6350 -124.6447 14° North 364 419 9,900  Level Seattle Center
Sat 06:19:05 PM 45.7447 -124.6044 14° North 394 453 9,900 68 Level Seattle Center
Sat 06:25:23 PM 46.3890 -124.1450 14° North 424 488 10,400 74 Climbing FlightAware ADS-B
Sat 06:25:53 PM 46.4231 -124.0750 55° Northeast 425 489 10,400  Level FlightAware ADS-B
Sat 06:26:23 PM 46.4572 -124.0050 55° Northeast 424 488 10,400  Level FlightAware ADS-B
Sat 06:26:53 PM 46.4913 -123.9340 55° Northeast 424 488 10,400  Level FlightAware ADS-B
Sat 06:27:23 PM 46.5256 -123.8640 55° Northeast 427 491 10,400  Level FlightAware ADS-B
Sat 06:27:53 PM 46.5596 -123.7940 55° Northeast 428 493 10,400  Level FlightAware ADS-B
Sat 06:28:24 PM 46.5941 -123.7230 55° Northeast 429 494 10,400  Level FlightAware ADS-B
Sat 06:28:54 PM 46.6285 -123.6520 55° Northeast 426 490 10,400 100 Level FlightAware ADS-B
Sat 06:29:24 PM 46.6631 -123.5800 55° Northeast 432 497 10,500 100 Climbing FlightAware ADS-B
Sat 06:29:54 PM 46.6972 -123.5100 55° Northeast 406 467 10,500  Level FlightAware ADS-B
Sat 06:30:25 PM 46.7301 -123.4420 55° Northeast 403 464 10,500  Level FlightAware ADS-B
Sat 06:30:55 PM 46.7627 -123.3750 55° Northeast 406 467 10,500  Level FlightAware ADS-B
Sat 06:31:22 PM 46.7909 -123.3160 55° Northeast 407 468 10,500  Level FlightAware ADS-B
Sat 06:31:48 PM 46.8176 -123.2540 58° Northeast 405 466 10,500  Level FlightAware ADS-B
Sat 06:32:05 PM 46.8339 -123.2160 58° Northeast 397 457 10,500  Level FlightAware ADS-B
Sat 06:32:35 PM 46.8602 -123.1490 60° Northeast 362 417 10,500  Level FlightAware ADS-B
Sat 06:33:02 PM 46.8837 -123.0940 58° Northeast 355 409 10,500  Level FlightAware ADS-B
Sat 06:33:32 PM 46.9109 -123.0340 56° Northeast 360 414 10,500  Level FlightAware ADS-B
Sat 06:33:59 PM 46.9354 -122.9800 56° Northeast 342 394 10,500 -667 Level FlightAware ADS-B
Sat 06:34:17 PM 46.9510 -122.9460 56° Northeast 320 368 10,000 -2,250 Descending FlightAware ADS-B
Sat 06:34:23 PM 46.9558 -122.9360 55° Northeast 320 368 9,600 -3,750 Descending FlightAware ADS-B
Sat 06:34:33 PM 46.9650 -122.9190 52° Northeast 322 371 9,000 -3,391 Descending FlightAware ADS-B
Sat 06:34:46 PM 46.9776 -122.8980 49° Northeast 323 372 8,300 -2,870 Descending FlightAware ADS-B
Sat 06:34:56 PM 46.9881 -122.8820 46° Northeast 320 368 7,900 -2,667 Descending FlightAware ADS-B
Sat 06:35:04 PM 46.9968 -122.8700 43° Northeast 317 365 7,500 -2,444 Descending FlightAware ADS-B
Sat 06:35:23 PM 47.0171 -122.8440 41° Northeast 316 364 6,800 -2,160 Descending FlightAware ADS-B
Sat 06:35:29 PM 47.0240 -122.8360 38° Northeast 316 364 6,600 -1,500 Descending FlightAware ADS-B
Sat 06:35:39 PM 47.0363 -122.8240 34° Northeast 312 359 6,400 -960 Descending FlightAware ADS-B
Sat 06:35:54 PM 47.0540 -122.8060 35° Northeast 306 352 6,200 -800 Descending FlightAware ADS-B
Sat 06:36:09 PM 47.0719 -122.7890 33° Northeast 300 345 6,000 -774 Descending FlightAware ADS-B
Sat 06:36:25 PM 47.0898 -122.7710 34° Northeast 298 343 5,800 -938 Descending FlightAware ADS-B
Sat 06:36:41 PM 47.1073 -122.7530 35° Northeast 296 341 5,500 -1,161 Descending FlightAware ADS-B
Sat 06:36:56 PM 47.1245 -122.7360 34° Northeast 296 341 5,200 -828 Descending FlightAware ADS-B
Sat 06:37:10 PM 47.1405 -122.7200 34° Northeast 291 335 5,100 -818 Descending FlightAware ADS-B
Sat 06:37:18 PM 47.1497 -122.7110 34° Northeast 288 331 4,900 -1,000 Descending FlightAware ADS-B
Sat 06:37:22 PM 47.1539 -122.7080 26° Northeast 286 329 4,900 -667 Level FlightAware ADS-B
Sat 06:37:27 PM 47.1600 -122.7030 29° Northeast 283 326 4,800 -1,091 Descending FlightAware ADS-B
Sat 06:37:33 PM 47.1671 -122.6990 21° North 281 323 4,700 -947 Descending FlightAware ADS-B
Sat 06:37:46 PM 47.1828 -122.6890 23° Northeast 280 322 4,500 -1,000 Descending FlightAware ADS-B
Sat 06:37:57 PM 47.1957 -122.6820 20° North 279 321 4,300 -1,154 Descending FlightAware ADS-B
Sat 06:38:12 PM 47.2138 -122.6720 21° North 280 322 4,000 -1,200 Descending FlightAware ADS-B
Sat 06:38:27 PM 47.2324 -122.6610 22° Northeast 278 320 3,700 -1,000 Descending FlightAware ADS-B
Sat 06:38:42 PM 47.2508 -122.6520 18° North 281 323 3,500 -375 Descending FlightAware ADS-B
Sat 06:38:59 PM 47.2704 -122.6410 21° North 281 323 3,500  Level FlightAware ADS-B
Sat 06:39:06 PM 47.2792 -122.6370 17° North 281 323 3,500  Level FlightAware ADS-B
Sat 06:39:12 PM 47.2869 -122.6330 19° North 279 321 3,500  Level FlightAware ADS-B
Sat 06:39:16 PM 47.2919 -122.6310 15° North 278 320 3,500  Level FlightAware ADS-B
Sat 06:39:23 PM 47.3009 -122.6280 13° North 278 320 3,500  Level FlightAware ADS-B
Sat 06:39:38 PM 47.3200 -122.6230 10° North 273 314 3,500  Level FlightAware ADS-B
Sat 06:39:55 PM 47.3397 -122.6170 12° North 259 298 3,500  Level FlightAware ADS-B
Sat 06:40:10 PM 47.3573 -122.6120 11° North 253 291 3,500  Level FlightAware ADS-B
Sat 06:40:25 PM 47.3750 -122.6060 13° North 253 291 3,500  Level FlightAware ADS-B
Sat 06:40:37 PM 47.3881 -122.6020 12° North 254 292 3,500  Level FlightAware ADS-B
Sat 06:40:50 PM 47.4036 -122.5980 10° North 256 295 3,500  Level FlightAware ADS-B
Sat 06:41:05 PM 47.4211 -122.5930 11° North 258 297 3,500  Level FlightAware ADS-B
Sat 06:41:20 PM 47.4391 -122.5880 11° North 257 296 3,500  Level FlightAware ADS-B
Sat 06:41:50 PM 47.4736 -122.5780 11° North 257 296 3,500 -250 Level FlightAware ADS-B
Sat 06:42:08 PM 47.4947 -122.5730 North 250 288 3,300 -1,029 Descending FlightAware ADS-B
Sat 06:42:25 PM 47.5140 -122.5680 10° North 250 288 2,900 -1,333 Descending FlightAware ADS-B
Sat 06:42:35 PM 47.5253 -122.5660 North 255 293 2,700 -480 Descending FlightAware ADS-B
Sat 06:42:50 PM 47.5428 -122.5640 North 250 288 2,700  Level FlightAware ADS-B
Sat 06:43:21 PM 47.5767 -122.5600 North 250 288 2,700  Level FlightAware ADS-B
Sat 06:43:43 PM 47.6007 -122.5560 North 235 270 2,700  Level FlightAware ADS-B
Sat 06:44:01 PM 47.6204 -122.5540 North 237 273 2,700  Level FlightAware ADS-B
Sat 06:44:53 PM 47.6765 -122.5480 North 236 272 2,700  Level FlightAware ADS-B
Sat 06:45:38 PM 47.7209 -122.5220 22° Northeast 233 268 2,700  Level FlightAware ADS-B
Sat 06:45:45 PM 47.7242 -122.5140 58° Northeast 225 259 2,700  Level FlightAware ADS-B
Sat 06:45:48 PM 47.7253 -122.5090 72° East 221 254 2,700  Level FlightAware ADS-B
Sat 06:45:52 PM 47.7260 -122.5030 80° East 215 247 2,700  Level FlightAware ADS-B
Sat 06:45:56 PM 47.7260 -122.4980 90° East 208 239 2,700  Level FlightAware ADS-B
Sat 06:46:00 PM 47.7255 -122.4920 97° East 205 236 2,700  Level FlightAware ADS-B
Sat 06:46:05 PM 47.7246 -122.4850 101° East 199 229 2,700  Level FlightAware ADS-B
Sat 06:46:21 PM 47.7191 -122.4660 113° Southeast 198 228 2,700  Level FlightAware ADS-B
Sat 06:46:24 PM 47.7173 -122.4630 132° Southeast 184 212 2,700  Level FlightAware ADS-B
Sat 06:46:56 PM 47.6965 -122.4440 148° Southeast 167 192 2,700  Level FlightAware ADS-B
Sat 06:47:23 PM 47.6780 -122.4280 150° Southeast 168 193 2,700  Level FlightAware ADS-B
Sat 06:47:41 PM 47.6673 -122.4190 150° Southeast 156 180 2,700  Level FlightAware ADS-B
Sat 06:47:56 PM 47.6572 -122.4110 152° Southeast 157 181 2,700  Level FlightAware ADS-B
Sat 06:48:11 PM 47.6486 -122.4030 148° Southeast 140 161 2,700  Level FlightAware ADS-B
Sat 06:48:25 PM 47.6409 -122.3960 149° Southeast 131 151 2,700  Level FlightAware ADS-B
Sat 06:48:36 PM 47.6356 -122.3920 153° Southeast 127 146 2,700 -300 Level FlightAware ADS-B
Sat 06:48:45 PM 47.6309 -122.3880 150° Southeast 127 146 2,600 -480 Descending FlightAware ADS-B
Sat 06:49:01 PM 47.6230 -122.3810 149° Southeast 127 146 2,500 -571 Descending FlightAware ADS-B
Sat 06:49:27 PM 47.6095 -122.3690 149° Southeast 126 145 2,200 -692 Descending FlightAware ADS-B
Sat 06:49:53 PM 47.5966 -122.3590 152° Southeast 125 144 1,900 -1,286 Descending FlightAware ADS-B
Sat 06:50:23 PM 47.5825 -122.3469 152° Southeast 125 144 1,000 -1,263 Descending Seattle Center
Sat 06:50:50 PM 47.5683 -122.3353 151° Southeast 124 143 700 -700 Descending Seattle Center
Sat 06:51:23 PM 47.5522 -122.3217 150° Southeast 124 143 300 5,936 Descending Seattle Center
Sat 06:52:24 PM 47.5256 -122.3000 151° Southeast 126 145 10,000 9,541 Climbing Seattle Center

Login

Don't have an account? Register now (free) for customized features, flight alerts, and more!